Pagrindinis puslapis
METAR-TAF:

METAR-TAF

Oro uostai :

Oulu, Suomija

platuma: 64-56N, ilguma: 025-22E, Aukštis: 12 m

Dabartinis oras

Ataskaita buvo paskelbta 27 minutes, ne 08:50 UTC
Vėjas 9 kt iš Vakarų
Temperatūra 2°C
Drėgmė 87%
Slėgis 976 hPa
Matomumas 10 km arba daugiau
Apsiniaukę ne aukštis 1000 ft

METAR: EFOU 180850Z AUTO 26009KT 9999 OVC010 02/00 Q0976

Laikas: 11:17 (09:17 UTC)

Prognozė

Ataskaita buvo paskelbta 39 minutes, ne 08:38 UTC
Prognozė galioja nuo 18 metu 09 UTC su 19 metu 09 UTC
Vėjas 8 kt iš Pietų/Pietvakarių
Matomumas 10 km arba daugiau
Su prošvaistėmis ne aukštis 3000 ft
Laikinai
nuo 18 metu 09 UTC su 18 metu 11 UTC
Su prošvaistėmis ne aukštis 1000 ft
Laikinai
nuo 18 metu 21 UTC su 19 metu 06 UTC
Matomumas: 5000 m
Su prošvaistėmis ne aukštis 1200 ft
lietus, sniegas

TAF: EFOU 180838Z 1809/1909 20008KT 9999 BKN030 TEMPO 1809/1811 BKN010 TEMPO 1821/1906 5000 -RASN BKN012

Orai ataskaitas ir orų prognozės (METAR, TAF).

turimą stotys yra geltonos ir raudonos taškus žemėlapyje.

Perkelti pele per norėdami pamatyti stoties vardą.

Tada spustelėkite, norėdami matyti oro stebėjimo ir prognozės.

Norėdami pakeisti žemėlapį: spustelėkite ant žalios mygtukų su juodo kryžiaus žemyn,; žalią mygtuką su brūkšneliu, jei norite nutolinti; arba žalių rodyklių gretimoms žemėlapius.


METAR-TAF: